Time;durP1;ratioP1;P1;durP2;ratioP2;P2;SDS_P1;SDS_P2;PMS_P1;PMS_P2;Temp;Humidity;BMP_temperature;BMP_pressure;BME280_temperature;BME280_humidity;BME280_pressure;Samples;Min_cycle;Max_cycle;Signal;HPM_P1;HPM_P2
2023/10/09 00:01:17;;;;;;;4.90;2.38;;;12.90;96.20;;;;;;5073910;28;20043;-71
2023/10/09 00:03:45;;;;;;;4.18;2.55;;;12.90;96.20;;;;;;5072513;28;20021;-71
2023/10/09 00:06:13;;;;;;;6.07;2.58;;;13.00;95.80;;;;;;5074115;28;20213;-71
2023/10/09 00:08:44;;;;;;;7.65;2.72;;;13.00;95.60;;;;;;5073664;28;20025;-71
2023/10/09 00:11:15;;;;;;;5.07;2.92;;;13.00;95.80;;;;;;5073925;28;20099;-71
2023/10/09 00:13:57;;;;;;;6.05;2.70;;;12.90;95.90;;;;;;5073290;28;20512;-71
2023/10/09 00:16:32;;;;;;;;;;;12.90;95.90;;;;;;5074467;28;20373;-71
2023/10/09 00:19:13;;;;;;;4.45;2.53;;;13.00;96.30;;;;;;5074032;28;19904;-71
2023/10/09 00:21:45;;;;;;;3.53;2.67;;;13.00;96.20;;;;;;5073401;28;20119;-72
2023/10/09 00:24:23;;;;;;;4.70;2.55;;;13.00;96.30;;;;;;5073695;28;20385;-71
2023/10/09 00:26:49;;;;;;;4.28;2.47;;;13.00;96.10;;;;;;5072834;28;20024;-71
2023/10/09 00:29:21;;;;;;;4.88;2.80;;;13.00;96.30;;;;;;5073589;28;20020;-71
2023/10/09 00:31:54;;;;;;;5.18;2.75;;;13.00;96.30;;;;;;5073140;28;20033;-71
2023/10/09 00:34:21;;;;;;;5.32;2.70;;;13.00;96.40;;;;;;5073628;28;20036;-71
2023/10/09 00:36:51;;;;;;;4.90;3.28;;;13.00;96.70;;;;;;5073026;28;20074;-71
2023/10/09 00:42:32;;;;;;;;;;;13.00;96.90;;;;;;5050492;28;20127;-71
2023/10/09 00:45:04;;;;;;;4.72;2.42;;;13.00;96.90;;;;;;5073516;28;19967;-71
2023/10/09 00:47:34;;;;;;;4.00;2.67;;;13.00;96.80;;;;;;5073441;28;20554;-71
2023/10/09 00:50:01;;;;;;;5.18;2.55;;;13.00;96.50;;;;;;5073187;28;20395;-71
2023/10/09 00:52:34;;;;;;;5.68;2.50;;;13.00;96.60;;;;;;5073175;28;20025;-71
2023/10/09 00:55:36;;;;;;;4.20;2.67;;;13.00;96.40;;;;;;5090959;28;20379;-71
2023/10/09 00:58:05;;;;;;;3.97;2.45;;;13.00;96.50;;;;;;5093621;28;20059;-71
2023/10/09 01:06:16;;;;;;;4.30;2.40;;;13.00;96.80;;;;;;5092992;28;20035;-71
2023/10/09 01:08:30;;;;;;;2.78;2.15;;;13.00;97.00;;;;;;5092449;28;20388;-71
2023/10/09 01:10:58;;;;;;;4.47;2.90;;;13.00;97.10;;;;;;5092748;28;20036;-71
2023/10/09 01:16:18;;;;;;;5.28;2.80;;;13.00;97.00;;;;;;5093004;28;20063;-71
2023/10/09 01:18:47;;;;;;;4.90;2.58;;;12.90;97.30;;;;;;5093240;28;20099;-71
2023/10/09 01:21:14;;;;;;;3.85;2.65;;;12.90;97.30;;;;;;5083182;28;20025;-71
2023/10/09 01:24:08;;;;;;;2.83;2.40;;;13.00;97.20;;;;;;5073161;28;20028;-71
2023/10/09 01:26:44;;;;;;;3.95;2.70;;;13.00;97.10;;;;;;5072598;28;20474;-71
2023/10/09 01:29:14;;;;;;;4.73;2.90;;;13.00;96.90;;;;;;5073423;28;20042;-71
2023/10/09 01:32:16;;;;;;;4.65;2.65;;;13.00;97.10;;;;;;5072415;28;20288;-71
2023/10/09 01:34:49;;;;;;;4.00;2.80;;;12.90;97.40;;;;;;5070272;28;20428;-70
2023/10/09 01:37:22;;;;;;;3.47;2.35;;;12.90;97.70;;;;;;5072168;28;20021;-70
2023/10/09 01:39:59;;;;;;;3.72;2.28;;;12.90;97.50;;;;;;5072423;28;20040;-72
2023/10/09 01:47:46;;;;;;;;;;;12.90;97.90;;;;;;5072839;28;20362;-72
2023/10/09 01:50:19;;;;;;;5.20;2.75;;;12.90;98.10;;;;;;5072489;28;19916;-72
2023/10/09 01:52:45;;;;;;;5.75;2.60;;;12.90;98.00;;;;;;5072323;28;20086;-72
2023/10/09 01:55:27;;;;;;;5.55;3.05;;;12.90;97.80;;;;;;5072573;28;20032;-72
2023/10/09 01:57:53;;;;;;;4.38;2.30;;;12.90;97.50;;;;;;5072092;28;20052;-72
2023/10/09 02:00:23;;;;;;;3.47;2.25;;;12.90;97.30;;;;;;5072440;28;20028;-72
2023/10/09 02:02:50;;;;;;;3.53;2.67;;;12.90;97.00;;;;;;5072047;28;20036;-72
2023/10/09 02:08:03;;;;;;;4.05;2.53;;;12.90;97.40;;;;;;5072049;28;20496;-72
2023/10/09 02:13:10;;;;;;;3.97;2.40;;;12.90;97.00;;;;;;5071961;28;20111;-72
2023/10/09 02:21:12;;;;;;;4.00;2.20;;;12.80;97.00;;;;;;5072042;28;20033;-72
2023/10/09 02:23:49;;;;;;;5.45;2.25;;;12.80;97.10;;;;;;5072026;28;20099;-72
2023/10/09 02:26:25;;;;;;;3.78;2.53;;;12.80;97.30;;;;;;5072373;28;20048;-72
2023/10/09 02:29:03;;;;;;;4.53;2.10;;;12.80;97.00;;;;;;5071863;28;20024;-72
2023/10/09 02:31:35;;;;;;;4.13;2.35;;;12.80;96.90;;;;;;5072250;28;20025;-72
2023/10/09 02:34:05;;;;;;;3.05;2.25;;;12.80;96.90;;;;;;5071711;28;20029;-72
2023/10/09 02:36:31;;;;;;;3.97;2.13;;;12.80;97.00;;;;;;5072209;28;20119;-72
2023/10/09 02:38:56;;;;;;;4.50;2.03;;;12.80;96.90;;;;;;5074374;28;20544;-71
2023/10/09 02:41:23;;;;;;;4.72;2.20;;;12.70;96.90;;;;;;5070889;28;20115;-72
2023/10/09 02:44:11;;;;;;;3.72;2.30;;;12.70;96.90;;;;;;5071651;28;20110;-72
2023/10/09 02:46:36;;;;;;;4.07;2.13;;;12.70;97.20;;;;;;5072088;28;20349;-72
2023/10/09 02:49:09;;;;;;;3.78;2.20;;;12.70;96.60;;;;;;5073234;28;20103;-72
2023/10/09 02:51:41;;;;;;;3.85;2.08;;;12.70;96.30;;;;;;5074506;28;20554;-72
2023/10/09 02:57:06;;;;;;;3.45;2.20;;;12.70;96.30;;;;;;5075287;28;20066;-72
2023/10/09 02:59:32;;;;;;;4.20;2.53;;;12.70;96.50;;;;;;5078003;28;20386;-71
2023/10/09 03:01:59;;;;;;;4.82;2.92;;;12.60;96.40;;;;;;5074998;28;20453;-72
2023/10/09 03:04:31;;;;;;;4.70;2.42;;;12.60;96.60;;;;;;5075298;28;20032;-72
2023/10/09 03:06:57;;;;;;;4.25;2.58;;;12.60;96.80;;;;;;5074703;28;20055;-72
2023/10/09 03:09:27;;;;;;;3.25;2.25;;;12.60;96.90;;;;;;5075533;28;20032;-72
2023/10/09 03:12:03;;;;;;;5.85;2.92;;;12.60;97.00;;;;;;5074667;28;20028;-72
2023/10/09 03:14:30;;;;;;;4.18;2.63;;;12.60;97.10;;;;;;5075232;28;20060;-72
2023/10/09 03:16:57;;;;;;;5.53;2.70;;;12.50;97.00;;;;;;5074681;28;20069;-71
2023/10/09 03:19:26;;;;;;;5.88;2.67;;;12.50;97.10;;;;;;5075183;28;20146;-71
2023/10/09 03:21:52;;;;;;;4.18;2.92;;;12.60;97.20;;;;;;5074582;28;20085;-72
2023/10/09 03:24:17;;;;;;;4.43;2.70;;;12.50;97.30;;;;;;5074761;28;20099;-71
2023/10/09 03:26:46;;;;;;;5.90;3.35;;;12.50;97.70;;;;;;5074523;28;20107;-73
2023/10/09 03:29:12;;;;;;;5.18;3.10;;;12.50;98.00;;;;;;5075963;28;20030;-72
2023/10/09 03:31:38;;;;;;;4.60;3.00;;;12.50;98.60;;;;;;5075874;28;20039;-72
2023/10/09 03:34:05;;;;;;;3.83;3.15;;;12.40;98.90;;;;;;5077504;28;20103;-71
2023/10/09 03:36:37;;;;;;;7.10;3.75;;;12.40;99.20;;;;;;5077165;28;20029;-72
2023/10/09 03:39:07;;;;;;;4.47;3.25;;;12.40;99.50;;;;;;5074902;28;20453;-72
2023/10/09 03:41:40;;;;;;;3.85;2.92;;;12.40;99.80;;;;;;5074573;28;20370;-72
2023/10/09 03:44:06;;;;;;;4.93;2.83;;;12.40;99.90;;;;;;5074476;28;20043;-72
2023/10/09 03:46:36;;;;;;;5.32;3.22;;;12.40;99.90;;;;;;5074715;28;20135;-72
2023/10/09 03:49:10;;;;;;;6.47;3.50;;;12.40;99.90;;;;;;5074454;28;20501;-72
2023/10/09 03:51:37;;;;;;;6.13;3.03;;;12.40;99.90;;;;;;5074389;28;20041;-72
2023/10/09 03:54:07;;;;;;;5.25;3.55;;;12.40;99.90;;;;;;5073976;28;20104;-72
2023/10/09 03:56:34;;;;;;;5.82;3.65;;;12.40;99.90;;;;;;5074359;28;20037;-72
2023/10/09 03:59:01;;;;;;;6.40;3.67;;;12.40;99.90;;;;;;5073482;28;20098;-72
2023/10/09 04:01:37;;;;;;;4.55;3.50;;;12.40;99.90;;;;;;5073330;28;20037;-72
2023/10/09 04:04:06;;;;;;;6.50;3.63;;;12.40;99.90;;;;;;5073764;28;20488;-72
2023/10/09 04:06:33;;;;;;;6.25;3.38;;;12.40;99.90;;;;;;5074107;28;20043;-72
2023/10/09 04:11:50;;;;;;;7.28;3.70;;;12.40;99.90;;;;;;5074053;28;20039;-72
2023/10/09 04:14:32;;;;;;;5.53;3.35;;;12.30;99.90;;;;;;5073699;28;20488;-72
2023/10/09 04:17:06;;;;;;;5.80;3.72;;;12.30;99.90;;;;;;5072328;28;20044;-72
2023/10/09 04:19:48;;;;;;;7.63;4.03;;;12.30;99.90;;;;;;5073922;28;20052;-71
2023/10/09 04:22:26;;;;;;;6.68;4.50;;;12.30;99.90;;;;;;5073615;28;20462;-70
2023/10/09 04:24:52;;;;;;;6.38;3.47;;;12.30;99.90;;;;;;5073465;28;20109;-71
2023/10/09 04:27:17;;;;;;;5.90;3.13;;;12.30;99.90;;;;;;5073569;28;20436;-71
2023/10/09 04:29:49;;;;;;;6.75;4.13;;;12.20;99.90;;;;;;5076388;28;20534;-71
2023/10/09 04:32:18;;;;;;;4.82;3.35;;;12.30;99.90;;;;;;5074083;28;20020;-71
2023/10/09 04:34:56;;;;;;;6.75;3.33;;;12.30;99.90;;;;;;5079952;28;20031;-71
2023/10/09 04:37:37;;;;;;;4.82;3.15;;;12.20;99.90;;;;;;5077270;28;20036;-71
2023/10/09 04:40:12;;;;;;;6.25;3.58;;;12.10;99.90;;;;;;5086207;28;20066;-71
2023/10/09 04:42:38;;;;;;;7.07;3.22;;;12.10;99.90;;;;;;5093640;28;20465;-72
2023/10/09 04:47:37;;;;;;;5.60;3.35;;;12.10;99.90;;;;;;5073364;28;20029;-70
2023/10/09 04:52:52;;;;;;;6.63;3.75;;;12.10;99.90;;;;;;5093065;28;20067;-71
2023/10/09 04:55:24;;;;;;;5.03;3.28;;;12.00;99.90;;;;;;5073510;28;20079;-70
2023/10/09 04:58:13;;;;;;;6.50;3.47;;;12.00;99.90;;;;;;5074870;28;20434;-72
2023/10/09 05:03:26;;;;;;;6.40;3.17;;;12.00;99.90;;;;;;5086642;28;20024;-71
2023/10/09 05:05:58;;;;;;;5.78;3.08;;;12.00;99.90;;;;;;5072821;28;20032;-71
2023/10/09 05:16:15;;;;;;;4.43;2.72;;;11.90;99.90;;;;;;5095204;28;20436;-72
2023/10/09 05:18:41;;;;;;;5.60;3.05;;;11.90;99.90;;;;;;5093575;28;20114;-71
2023/10/09 05:23:48;;;;;;;4.20;3.20;;;11.90;99.90;;;;;;5086742;28;20039;-72
2023/10/09 05:32:15;;;;;;;5.15;3.22;;;11.90;99.90;;;;;;5092901;28;20032;-71
2023/10/09 05:37:32;;;;;;;7.20;3.50;;;11.90;99.90;;;;;;5092772;28;20028;-71
2023/10/09 05:42:43;;;;;;;7.45;3.03;;;11.90;99.50;;;;;;5092955;28;20020;-71
2023/10/09 05:50:37;;;;;;;6.20;2.92;;;11.90;99.00;;;;;;5092708;28;20127;-71
2023/10/09 06:03:45;;;;;;;5.85;2.65;;;12.00;97.90;;;;;;5092465;28;20031;-71
2023/10/09 06:06:18;;;;;;;5.82;2.95;;;12.10;97.70;;;;;;5092306;28;20028;-72
2023/10/09 06:16:41;;;;;;;5.25;2.72;;;12.20;97.10;;;;;;5092466;28;20035;-71
2023/10/09 06:24:22;;;;;;;5.55;3.00;;;12.40;95.80;;;;;;5093798;28;20535;-71
2023/10/09 06:29:34;;;;;;;4.93;2.60;;;12.50;95.50;;;;;;5096382;28;20092;-71
2023/10/09 06:34:51;;;;;;;6.60;2.40;;;12.70;95.10;;;;;;5096273;28;20024;-71
2023/10/09 06:45:06;;;;;;;7.97;3.63;;;13.00;93.70;;;;;;5095705;28;20457;-71
2023/10/09 06:47:41;;;;;;;3.85;2.17;;;13.10;93.40;;;;;;5095759;28;20468;-72
2023/10/09 06:52:57;;;;;;;4.73;2.27;;;13.20;92.90;;;;;;5075315;28;20027;-72
2023/10/09 06:55:37;;;;;;;5.85;2.25;;;13.30;92.60;;;;;;5074964;28;20112;-72
2023/10/09 06:58:09;;;;;;;5.97;2.65;;;13.40;92.30;;;;;;5074867;28;20534;-72
2023/10/09 07:00:54;;;;;;;3.85;2.10;;;13.50;92.30;;;;;;5075540;28;20040;-72
2023/10/09 07:03:29;;;;;;;7.28;2.75;;;13.60;92.10;;;;;;5074954;28;20270;-72
2023/10/09 07:06:09;;;;;;;4.80;2.20;;;13.60;91.70;;;;;;5075286;28;20471;-72
2023/10/09 07:08:44;;;;;;;3.57;1.97;;;13.60;91.50;;;;;;5074995;28;20429;-72
2023/10/09 07:11:56;;;;;;;4.35;2.03;;;13.70;91.50;;;;;;5074544;28;20334;-72
2023/10/09 07:17:26;;;;;;;5.00;2.20;;;13.90;91.20;;;;;;5075027;28;20029;-71
2023/10/09 07:35:47;;;;;;;3.92;2.22;;;14.70;89.40;;;;;;5093837;28;20055;-72
2023/10/09 07:38:19;;;;;;;3.35;1.90;;;14.90;88.50;;;;;;5094713;28;20028;-72
2023/10/09 07:40:55;;;;;;;3.42;1.90;;;15.00;87.50;;;;;;5093533;28;20032;-71
2023/10/09 07:43:38;;;;;;;3.60;2.33;;;15.00;86.30;;;;;;5094419;28;20035;-72
2023/10/09 07:51:16;;;;;;;3.22;1.80;;;15.40;85.40;;;;;;5093965;28;20047;-72
2023/10/09 07:53:45;;;;;;;5.40;2.38;;;15.50;85.40;;;;;;5093474;28;20024;-72
2023/10/09 07:56:20;;;;;;;5.18;2.25;;;15.60;84.40;;;;;;5093880;28;20024;-72
2023/10/09 07:58:47;;;;;;;5.68;2.25;;;15.60;84.80;;;;;;5092967;28;20400;-71
2023/10/09 08:01:22;;;;;;;3.30;2.40;;;15.70;84.60;;;;;;5094084;28;20035;-71
2023/10/09 08:03:57;;;;;;;3.63;2.05;;;15.70;84.00;;;;;;5094658;28;20055;-71
2023/10/09 08:06:44;;;;;;;6.45;2.13;;;15.60;83.90;;;;;;5093590;28;20462;-72
2023/10/09 08:14:41;;;;;;;3.85;1.80;;;16.00;84.20;;;;;;5094052;28;20468;-73
2023/10/09 08:19:54;;;;;;;5.25;2.20;;;16.30;82.30;;;;;;5094157;28;20119;-72
2023/10/09 08:24:57;;;;;;;2.90;1.90;;;16.50;81.50;;;;;;5085548;28;20024;-72
2023/10/09 08:33:00;;;;;;;5.43;2.60;;;17.00;80.40;;;;;;5073612;28;20469;-72
2023/10/09 08:35:29;;;;;;;3.92;1.73;;;17.30;79.80;;;;;;5073174;28;20029;-72
2023/10/09 08:37:59;;;;;;;6.90;2.03;;;17.40;78.90;;;;;;5073488;28;20381;-72
2023/10/09 08:40:39;;;;;;;5.35;2.03;;;17.50;77.80;;;;;;5073305;28;20465;-73
2023/10/09 08:43:14;;;;;;;5.97;2.63;;;17.60;77.30;;;;;;5076885;28;20425;-72
2023/10/09 08:45:44;;;;;;;4.70;2.33;;;17.80;76.80;;;;;;5075217;28;20020;-71
2023/10/09 08:48:26;;;;;;;3.38;2.30;;;17.90;75.80;;;;;;5072814;28;20017;-73
2023/10/09 08:50:54;;;;;;;5.25;2.30;;;18.10;75.70;;;;;;5058402;28;20393;-72
2023/10/09 08:53:21;;;;;;;4.22;2.10;;;18.20;74.70;;;;;;5073460;28;20098;-72
2023/10/09 08:55:47;;;;;;;7.50;2.38;;;18.30;74.60;;;;;;5073370;28;20103;-72
2023/10/09 08:58:20;;;;;;;7.82;1.98;;;18.40;74.60;;;;;;5072542;28;20143;-72
2023/10/09 09:00:47;;;;;;;5.30;1.98;;;18.50;74.00;;;;;;5073215;28;20033;-71
2023/10/09 09:03:17;;;;;;;4.72;2.03;;;18.50;74.20;;;;;;5072617;28;20111;-72
2023/10/09 09:05:49;;;;;;;8.05;2.08;;;18.60;73.60;;;;;;5073166;28;20086;-72
2023/10/09 09:08:25;;;;;;;4.00;2.20;;;18.60;73.10;;;;;;5072614;28;20099;-71
2023/10/09 09:11:10;;;;;;;4.53;1.75;;;18.60;72.90;;;;;;5073050;28;20041;-72
2023/10/09 09:13:36;;;;;;;5.53;2.30;;;18.60;72.40;;;;;;5073021;28;20137;-71
2023/10/09 09:16:02;;;;;;;4.53;2.28;;;18.60;72.60;;;;;;5072628;28;20108;-72
2023/10/09 09:18:39;;;;;;;6.43;2.25;;;18.60;72.90;;;;;;5072295;28;20526;-72
2023/10/09 09:21:22;;;;;;;9.05;2.40;;;18.60;73.10;;;;;;5071844;28;20028;-73
2023/10/09 09:23:57;;;;;;;4.68;2.20;;;18.50;72.60;;;;;;5074187;28;20055;-72
2023/10/09 09:26:37;;;;;;;7.55;2.60;;;18.50;72.60;;;;;;5072394;28;20020;-73
2023/10/09 09:29:06;;;;;;;8.20;2.22;;;18.50;73.20;;;;;;5072791;28;20025;-72
2023/10/09 09:31:37;;;;;;;4.13;2.17;;;18.50;73.80;;;;;;5072272;28;20127;-73
2023/10/09 09:34:14;;;;;;;5.63;2.20;;;18.40;73.60;;;;;;5073133;28;20036;-71
2023/10/09 09:36:53;;;;;;;3.88;1.88;;;18.40;73.80;;;;;;5072721;28;20028;-71
2023/10/09 09:39:27;;;;;;;5.70;2.15;;;18.30;74.20;;;;;;5072411;28;20021;-72
2023/10/09 09:42:03;;;;;;;7.53;2.50;;;18.30;74.10;;;;;;5072763;28;20032;-72
2023/10/09 09:44:32;;;;;;;7.57;2.25;;;18.30;74.70;;;;;;5072370;28;20419;-73
2023/10/09 09:47:01;;;;;;;4.45;2.42;;;18.20;74.60;;;;;;5071454;28;20017;-72
2023/10/09 09:49:31;;;;;;;7.45;2.40;;;18.20;75.00;;;;;;5071910;28;20025;-72
2023/10/09 09:52:00;;;;;;;4.32;2.17;;;18.30;75.40;;;;;;5072590;28;20116;-73
2023/10/09 09:54:27;;;;;;;7.45;2.40;;;18.30;75.80;;;;;;5072008;28;20173;-72
2023/10/09 09:56:55;;;;;;;9.32;2.10;;;18.40;75.80;;;;;;5072123;28;20485;-72
2023/10/09 09:59:29;;;;;;;5.95;2.40;;;18.60;75.90;;;;;;5073844;28;20119;-72
2023/10/09 10:01:58;;;;;;;4.78;2.55;;;18.70;75.80;;;;;;5076349;28;20043;-72
2023/10/09 10:04:29;;;;;;;4.90;2.80;;;18.80;75.00;;;;;;5075978;28;20025;-73
2023/10/09 10:07:03;;;;;;;12.60;2.58;;;18.90;74.40;;;;;;5076733;28;20082;-71
2023/10/09 10:09:39;;;;;;;9.65;3.08;;;19.00;74.40;;;;;;5075971;28;20032;-72
2023/10/09 10:12:11;;;;;;;5.45;2.72;;;19.10;74.10;;;;;;5076242;28;20033;-73
2023/10/09 10:15:05;;;;;;;8.88;2.72;;;19.10;73.50;;;;;;5075999;28;20056;-72
2023/10/09 10:17:31;;;;;;;11.35;2.10;;;19.20;73.40;;;;;;5074927;28;20405;-72
2023/10/09 10:22:47;;;;;;;12.20;2.95;;;19.20;72.60;;;;;;5078428;28;20043;-72
2023/10/09 10:25:32;;;;;;;;;;;19.30;73.00;;;;;;5076533;28;20362;-73
2023/10/09 10:28:42;;;;;;;11.25;3.10;;;19.40;74.00;;;;;;5075998;28;19904;-73
2023/10/09 10:31:08;;;;;;;8.77;3.08;;;19.40;74.30;;;;;;5075606;28;20044;-72
2023/10/09 10:33:54;;;;;;;7.53;3.00;;;19.40;73.90;;;;;;5073932;28;20541;-72
2023/10/09 10:36:23;;;;;;;13.98;3.05;;;19.50;73.50;;;;;;5075409;28;20027;-72
2023/10/09 10:39:10;;;;;;;8.02;2.97;;;19.50;73.60;;;;;;5076407;28;20032;-73
2023/10/09 10:41:54;;;;;;;8.93;3.42;;;19.60;73.40;;;;;;5075839;28;20052;-72
2023/10/09 10:44:42;;;;;;;10.40;3.63;;;19.60;73.20;;;;;;5076311;28;20023;-72
2023/10/09 10:47:22;;;;;;;11.98;3.22;;;19.60;72.90;;;;;;5076377;28;20024;-72
2023/10/09 10:49:52;;;;;;;10.15;3.15;;;19.60;72.70;;;;;;5077255;28;20028;-73
2023/10/09 10:53:28;;;;;;;9.13;3.50;;;19.60;72.70;;;;;;5075126;28;20043;-74
2023/10/09 10:56:17;;;;;;;8.60;2.55;;;19.60;72.30;;;;;;5061532;28;20102;-74
2023/10/09 10:58:47;;;;;;;5.45;2.72;;;19.50;72.30;;;;;;5067531;28;20044;-72
2023/10/09 11:01:13;;;;;;;7.57;2.65;;;19.50;72.10;;;;;;5075004;28;20064;-73
2023/10/09 11:03:56;;;;;;;10.95;3.60;;;19.40;72.40;;;;;;5107254;28;20094;-72
2023/10/09 11:06:38;;;;;;;10.43;3.28;;;19.40;72.10;;;;;;5074993;28;20036;-71
2023/10/09 11:09:20;;;;;;;10.82;2.83;;;19.30;72.60;;;;;;5075754;28;20031;-72
2023/10/09 11:11:47;;;;;;;8.48;2.92;;;19.30;73.30;;;;;;5075444;28;20021;-73
2023/10/09 11:14:26;;;;;;;7.90;3.22;;;19.20;74.40;;;;;;5075328;28;20028;-72
2023/10/09 11:16:57;;;;;;;7.68;3.30;;;19.20;76.60;;;;;;5073999;28;20384;-72
2023/10/09 11:22:14;;;;;;;10.02;3.40;;;19.10;78.20;;;;;;5074109;28;20418;-72
2023/10/09 11:24:43;;;;;;;15.50;3.88;;;19.00;78.80;;;;;;5091316;28;20039;-72
2023/10/09 11:27:18;;;;;;;11.98;4.18;;;19.00;79.30;;;;;;5095340;28;20068;-72
2023/10/09 11:32:22;;;;;;;13.68;3.63;;;18.80;82.20;;;;;;5095234;28;20531;-72
2023/10/09 11:34:52;;;;;;;10.87;3.30;;;18.80;82.30;;;;;;5095141;28;20029;-73
2023/10/09 11:39:54;;;;;;;11.73;4.13;;;18.60;83.10;;;;;;5095026;28;20035;-73
2023/10/09 11:42:37;;;;;;;10.50;3.85;;;18.60;84.10;;;;;;5095008;28;20028;-72
2023/10/09 11:45:19;;;;;;;10.13;3.92;;;18.50;85.00;;;;;;5094771;28;20063;-71
2023/10/09 11:47:58;;;;;;;15.00;4.63;;;18.50;86.50;;;;;;5093139;28;20116;-71
2023/10/09 11:50:43;;;;;;;13.73;3.75;;;18.40;86.70;;;;;;5094564;28;20062;-71
2023/10/09 11:55:49;;;;;;;10.23;4.05;;;18.30;89.50;;;;;;5094655;28;20373;-72
2023/10/09 11:58:25;;;;;;;9.63;3.53;;;18.20;90.30;;;;;;5094207;28;20044;-73
2023/10/09 12:01:04;;;;;;;12.20;4.45;;;18.20;90.50;;;;;;5094619;28;20092;-73
2023/10/09 12:03:32;;;;;;;10.93;4.05;;;18.20;91.20;;;;;;5093979;28;20448;-73
2023/10/09 12:06:04;;;;;;;13.23;3.83;;;18.20;91.90;;;;;;5094511;28;20107;-73
2023/10/09 12:08:30;;;;;;;11.77;3.78;;;18.10;92.00;;;;;;5094133;28;20031;-71
2023/10/09 12:10:56;;;;;;;11.20;4.10;;;18.10;92.20;;;;;;5094287;28;20457;-72
2023/10/09 12:13:25;;;;;;;13.48;4.47;;;18.10;92.60;;;;;;5094292;28;20092;-72
2023/10/09 12:15:52;;;;;;;9.93;4.15;;;18.00;92.90;;;;;;5093718;28;20031;-72
2023/10/09 12:18:19;;;;;;;11.15;4.32;;;18.00;93.40;;;;;;5095471;28;20043;-72
2023/10/09 12:21:02;;;;;;;15.45;4.35;;;18.00;93.90;;;;;;5094368;28;20097;-72
2023/10/09 12:23:28;;;;;;;12.95;4.50;;;18.00;94.00;;;;;;5093645;28;20028;-72
2023/10/09 12:25:56;;;;;;;11.32;5.22;;;18.00;94.40;;;;;;5093752;28;20484;-73
2023/10/09 12:28:23;;;;;;;16.27;4.97;;;18.00;95.00;;;;;;5088885;28;20045;-72
2023/10/09 12:30:51;;;;;;;15.68;4.32;;;17.90;94.90;;;;;;5073955;28;20042;-73
2023/10/09 12:33:19;;;;;;;14.60;4.47;;;17.90;94.10;;;;;;5073656;28;20060;-73
2023/10/09 12:35:46;;;;;;;15.40;4.93;;;17.90;94.20;;;;;;5075653;28;20028;-72
2023/10/09 12:38:18;;;;;;;15.63;5.13;;;17.80;94.20;;;;;;5073474;28;20076;-73
2023/10/09 12:40:50;;;;;;;10.77;4.43;;;17.90;95.00;;;;;;5073222;28;20032;-72
2023/10/09 12:43:19;;;;;;;15.32;5.65;;;17.80;95.40;;;;;;5076358;28;20146;-71
2023/10/09 12:45:45;;;;;;;11.13;4.90;;;17.80;95.70;;;;;;5078595;28;20028;-71
2023/10/09 12:48:12;;;;;;;15.00;5.25;;;17.70;96.00;;;;;;5073791;28;20027;-72
2023/10/09 12:50:44;;;;;;;11.25;4.95;;;17.70;96.00;;;;;;5072921;28;20021;-72
2023/10/09 12:53:11;;;;;;;11.15;4.97;;;17.70;96.60;;;;;;5073432;28;20039;-73
2023/10/09 12:55:43;;;;;;;12.65;5.57;;;17.60;96.60;;;;;;5073081;28;20021;-73
2023/10/09 12:58:14;;;;;;;8.75;4.72;;;17.50;96.60;;;;;;5071444;28;20431;-73
2023/10/09 13:00:49;;;;;;;8.90;5.13;;;17.40;97.10;;;;;;5072899;28;20024;-72
2023/10/09 13:03:16;;;;;;;10.75;5.47;;;17.30;97.80;;;;;;5073276;28;20260;-72
2023/10/09 13:05:57;;;;;;;9.65;4.78;;;17.20;98.40;;;;;;5072799;28;20052;-73
2023/10/09 13:08:39;;;;;;;16.93;5.33;;;17.10;98.90;;;;;;5073193;28;20116;-71
2023/10/09 13:11:16;;;;;;;10.18;5.05;;;17.10;99.80;;;;;;5073149;28;20303;-72
2023/10/09 13:13:43;;;;;;;12.02;5.05;;;17.00;99.90;;;;;;5072945;28;20073;-72
2023/10/09 13:16:20;;;;;;;10.63;5.15;;;16.90;99.90;;;;;;5073012;28;20025;-73
2023/10/09 13:18:52;;;;;;;12.80;5.60;;;16.90;99.90;;;;;;5072658;28;20016;-72
2023/10/09 13:21:26;;;;;;;9.50;4.80;;;16.80;99.90;;;;;;5073120;28;20032;-73
2023/10/09 13:23:54;;;;;;;12.15;5.63;;;16.80;99.90;;;;;;5074697;28;20023;-73
2023/10/09 13:26:25;;;;;;;14.15;5.30;;;16.70;99.90;;;;;;5093931;28;20031;-73
2023/10/09 13:28:55;;;;;;;12.07;5.38;;;16.70;99.90;;;;;;5093905;28;20028;-72
2023/10/09 13:31:25;;;;;;;15.00;5.07;;;16.60;99.90;;;;;;5093653;28;20550;-73
2023/10/09 13:33:54;;;;;;;16.92;6.03;;;16.60;99.90;;;;;;5092377;28;20036;-72
2023/10/09 13:36:31;;;;;;;13.88;5.80;;;16.60;99.90;;;;;;5093084;28;20020;-72
2023/10/09 13:38:57;;;;;;;14.95;5.93;;;16.60;99.90;;;;;;5093490;28;20024;-72
2023/10/09 13:41:29;;;;;;;14.57;6.38;;;16.50;99.90;;;;;;5092752;28;20445;-73
2023/10/09 13:43:56;;;;;;;17.05;6.13;;;16.50;99.90;;;;;;5093134;28;20077;-73
2023/10/09 13:46:23;;;;;;;13.95;6.30;;;16.40;99.90;;;;;;5093008;28;20111;-73
2023/10/09 13:48:49;;;;;;;16.25;6.63;;;16.40;99.90;;;;;;5092481;28;20035;-74
2023/10/09 13:51:18;;;;;;;16.13;6.70;;;16.40;99.90;;;;;;5092820;28;20036;-73
2023/10/09 13:53:47;;;;;;;15.45;6.95;;;16.40;99.90;;;;;;5092482;28;20051;-73
2023/10/09 13:56:20;;;;;;;11.45;6.13;;;16.30;99.90;;;;;;5092773;28;20456;-72
2023/10/09 13:58:50;;;;;;;15.80;6.75;;;16.30;99.90;;;;;;5092513;28;20059;-73
2023/10/09 14:01:26;;;;;;;16.40;6.35;;;16.30;99.90;;;;;;5092641;28;20071;-73
2023/10/09 14:03:59;;;;;;;12.80;6.00;;;16.30;99.90;;;;;;5092323;28;20539;-73
2023/10/09 14:06:32;;;;;;;14.05;5.93;;;16.30;99.90;;;;;;5092574;28;20055;-73
2023/10/09 14:09:05;;;;;;;14.38;6.68;;;16.30;99.90;;;;;;5092537;28;20365;-72
2023/10/09 14:11:37;;;;;;;15.38;6.68;;;16.30;99.90;;;;;;5092661;28;20035;-72
2023/10/09 14:14:09;;;;;;;15.00;6.78;;;16.30;99.90;;;;;;5092537;28;20546;-72
2023/10/09 14:16:42;;;;;;;18.48;6.03;;;16.30;99.90;;;;;;5092067;28;20024;-72
2023/10/09 14:19:12;;;;;;;16.42;5.97;;;16.30;99.90;;;;;;5092490;28;20050;-72
2023/10/09 14:21:40;;;;;;;19.40;6.60;;;16.30;99.90;;;;;;5092160;28;20077;-72
2023/10/09 14:24:15;;;;;;;19.42;6.22;;;16.30;99.90;;;;;;5092677;28;20046;-71
2023/10/09 14:26:41;;;;;;;15.55;5.97;;;16.30;99.90;;;;;;5092143;28;20024;-72
2023/10/09 14:29:07;;;;;;;14.68;6.75;;;16.30;99.90;;;;;;5092411;28;20028;-72
2023/10/09 14:31:38;;;;;;;18.63;7.65;;;16.30;99.90;;;;;;5092000;28;20024;-72
2023/10/09 14:34:05;;;;;;;18.92;6.90;;;16.20;99.90;;;;;;5090790;28;20111;-73
2023/10/09 14:36:34;;;;;;;18.60;6.85;;;16.30;99.90;;;;;;5073453;28;20036;-72
2023/10/09 14:39:04;;;;;;;14.18;6.50;;;16.30;99.90;;;;;;5072333;28;20104;-72
2023/10/09 14:41:33;;;;;;;19.60;7.03;;;16.30;99.90;;;;;;5072207;28;20032;-72
2023/10/09 14:43:59;;;;;;;17.13;5.28;;;16.30;99.90;;;;;;5074126;28;20024;-73
2023/10/09 14:46:29;;;;;;;18.70;6.13;;;16.30;99.90;;;;;;5075145;28;20029;-72
2023/10/09 14:48:55;;;;;;;15.02;6.05;;;16.30;99.90;;;;;;5075321;28;20056;-72
2023/10/09 14:51:27;;;;;;;15.98;5.95;;;16.30;99.90;;;;;;5075173;28;20469;-72
2023/10/09 14:54:02;;;;;;;12.48;5.55;;;16.30;99.90;;;;;;5075109;28;20165;-73
2023/10/09 14:56:28;;;;;;;16.40;5.30;;;16.30;99.90;;;;;;5075674;28;20027;-72
2023/10/09 14:58:58;;;;;;;14.75;6.15;;;16.20;99.90;;;;;;5075380;28;20049;-73
2023/10/09 15:01:29;;;;;;;13.20;4.78;;;16.20;99.90;;;;;;5075332;28;20530;-72
2023/10/09 15:04:03;;;;;;;11.23;6.47;;;16.30;99.90;;;;;;5073768;28;20488;-71
2023/10/09 15:06:30;;;;;;;16.38;5.35;;;16.20;99.90;;;;;;5076309;28;20473;-73
2023/10/09 15:09:00;;;;;;;13.52;5.28;;;16.30;99.90;;;;;;5076770;28;20102;-71
2023/10/09 15:11:28;;;;;;;15.93;5.18;;;16.30;99.90;;;;;;5076071;28;20056;-71
2023/10/09 15:13:56;;;;;;;15.30;6.30;;;16.20;99.90;;;;;;5075055;28;20078;-73
2023/10/09 15:16:26;;;;;;;15.18;5.90;;;16.20;99.90;;;;;;5075791;28;20024;-72
2023/10/09 15:18:53;;;;;;;12.30;5.78;;;16.20;99.90;;;;;;5074952;28;20358;-73
2023/10/09 15:21:22;;;;;;;15.63;6.20;;;16.10;99.90;;;;;;5075359;28;20032;-73
2023/10/09 15:23:55;;;;;;;17.58;6.28;;;16.10;99.90;;;;;;5074751;28;20025;-72
2023/10/09 15:26:21;;;;;;;17.00;6.90;;;16.10;99.90;;;;;;5075322;28;20074;-73
2023/10/09 15:28:49;;;;;;;14.20;6.93;;;16.10;99.90;;;;;;5073356;28;20465;-71
2023/10/09 15:31:16;;;;;;;17.08;6.15;;;16.00;99.90;;;;;;5076159;28;20142;-73
2023/10/09 15:33:42;;;;;;;16.35;6.32;;;16.00;99.90;;;;;;5073302;28;20044;-73
2023/10/09 15:36:13;;;;;;;15.57;6.40;;;16.00;99.90;;;;;;5074744;28;20461;-72
2023/10/09 15:38:38;;;;;;;17.93;6.37;;;16.00;99.90;;;;;;5073113;28;20031;-72
2023/10/09 15:41:05;;;;;;;20.05;6.55;;;16.00;99.90;;;;;;5074952;28;20032;-72
2023/10/09 15:43:33;;;;;;;15.95;6.88;;;16.00;99.90;;;;;;5074498;28;20037;-72
2023/10/09 15:45:59;;;;;;;21.02;6.90;;;16.00;99.90;;;;;;5074291;28;20432;-72
2023/10/09 15:48:25;;;;;;;18.27;6.60;;;16.00;99.90;;;;;;5074359;28;20419;-72
2023/10/09 15:50:51;;;;;;;14.98;7.22;;;16.00;99.90;;;;;;5073971;28;20119;-71